Time;durP1;ratioP1;P1;durP2;ratioP2;P2;SDS_P1;SDS_P2;PMS_P1;PMS_P2;Temp;Humidity;BMP_temperature;BMP_pressure;BME280_temperature;BME280_humidity;BME280_pressure;Samples;Min_cycle;Max_cycle;Signal;HPM_P1;HPM_P2
2023/04/07 00:01:52;;;;;;;19.55;8.95;;;;;;;6.02;48.36;101850.19;4914419;29;20396;-53
2023/04/07 00:04:18;;;;;;;14.65;8.50;;;;;;;6.02;47.97;101847.56;4932624;29;20082;-52
2023/04/07 00:06:44;;;;;;;19.05;9.15;;;;;;;5.99;48.33;101851.06;4919503;29;20035;-58
2023/04/07 00:09:10;;;;;;;17.67;8.35;;;;;;;5.92;48.20;101854.69;4926304;29;20072;-54
2023/04/07 00:11:35;;;;;;;16.65;8.02;;;;;;;5.83;48.34;101854.88;4927571;29;20050;-53
2023/04/07 00:14:01;;;;;;;18.17;8.60;;;;;;;5.76;48.62;101849.78;4929069;29;20039;-51
2023/04/07 00:16:26;;;;;;;16.20;8.38;;;;;;;5.75;48.70;101850.66;4931331;29;20053;-52
2023/04/07 00:18:52;;;;;;;21.35;8.55;;;;;;;5.67;48.84;101857.81;4924441;29;20489;-52
2023/04/07 00:21:17;;;;;;;23.95;8.82;;;;;;;5.61;49.00;101848.31;4928912;29;20031;-51
2023/04/07 00:23:43;;;;;;;15.80;7.95;;;;;;;5.57;48.93;101848.41;4926201;29;20036;-55
2023/04/07 00:26:09;;;;;;;21.45;8.75;;;;;;;5.62;48.88;101844.81;4941942;29;20027;-51
2023/04/07 00:28:35;;;;;;;15.13;7.53;;;;;;;5.61;48.90;101847.47;4930427;29;20040;-51
2023/04/07 00:31:00;;;;;;;21.73;9.13;;;;;;;5.57;48.92;101845.78;4931169;29;20114;-53
2023/04/07 00:33:26;;;;;;;19.35;9.50;;;;;;;5.59;49.02;101844.03;4926492;29;20043;-51
2023/04/07 00:35:53;;;;;;;13.35;7.30;;;;;;;5.60;49.05;101843.13;4926715;29;20098;-51
2023/04/07 00:38:18;;;;;;;23.50;8.85;;;;;;;5.57;49.30;101836.22;4930703;29;20031;-52
2023/04/07 00:40:44;;;;;;;16.95;9.05;;;;;;;5.57;49.23;101835.34;4930049;29;20042;-54
2023/04/07 00:43:09;;;;;;;14.00;8.18;;;;;;;5.53;49.17;101833.69;4931535;29;20044;-51
2023/04/07 00:45:35;;;;;;;22.67;8.43;;;;;;;5.44;49.28;101827.75;4930297;29;20514;-52
2023/04/07 00:48:01;;;;;;;17.88;8.95;;;;;;;5.45;49.33;101834.69;4933719;29;20031;-52
2023/04/07 00:50:26;;;;;;;17.65;9.15;;;;;;;5.46;49.38;101835.53;4929202;29;20039;-52
2023/04/07 00:52:53;;;;;;;23.88;8.32;;;;;;;5.48;49.37;101829.44;4934979;29;20035;-51
2023/04/07 00:55:19;;;;;;;17.00;8.65;;;;;;;5.44;49.43;101830.38;4922227;29;20043;-53
2023/04/07 00:57:45;;;;;;;18.58;7.78;;;;;;;5.47;49.34;101827.72;4929065;29;20034;-53
2023/04/07 01:00:11;;;;;;;17.73;7.57;;;;;;;5.50;49.60;101832.00;4928027;29;20047;-50
2023/04/07 01:02:46;;;;;;;16.38;8.25;;;;;;;5.54;49.33;101818.00;4928774;29;20385;-53
2023/04/07 01:05:17;;;;;;;17.83;7.88;;;;;;;5.57;49.68;101827.53;4928634;29;20040;-52
2023/04/07 01:08:10;;;;;;;22.05;8.18;;;;;;;5.58;50.01;101818.78;4926326;29;20180;-53
2023/04/07 01:11:11;;;;;;;16.00;8.93;;;;;;;5.55;49.54;101819.72;4912084;29;20036;-51
2023/04/07 01:13:48;;;;;;;14.45;7.80;;;;;;;5.56;49.72;101823.19;4909236;29;20031;-53
2023/04/07 01:16:22;;;;;;;13.95;6.65;;;;;;;5.57;49.61;101817.06;4930751;29;20530;-53
2023/04/07 01:18:52;;;;;;;16.50;6.97;;;;;;;5.57;49.61;101817.06;4923280;29;20048;-52
2023/04/07 01:21:18;;;;;;;15.05;7.65;;;;;;;5.57;49.92;101822.28;4927241;29;20523;-52
2023/04/07 01:24:18;;;;;;;16.30;7.85;;;;;;;5.56;50.39;101813.63;4928256;29;20036;-51
2023/04/07 01:26:46;;;;;;;14.88;7.22;;;;;;;5.55;50.04;101809.28;4925854;29;20099;-52
2023/04/07 01:29:35;;;;;;;16.48;8.10;;;;;;;5.61;50.24;101816.13;4931593;29;20060;-51
2023/04/07 01:32:02;;;;;;;14.00;7.25;;;;;;;5.57;49.83;101817.94;4929428;29;20046;-51
2023/04/07 01:34:31;;;;;;;15.18;7.78;;;;;;;5.57;49.88;101814.47;4931199;29;20051;-51
2023/04/07 01:37:00;;;;;;;18.85;9.23;;;;;;;5.61;50.11;101813.53;4922947;29;20047;-51
2023/04/07 01:39:27;;;;;;;13.25;7.80;;;;;;;5.65;49.91;101808.19;4925870;29;20024;-51
2023/04/07 01:41:54;;;;;;;13.77;7.40;;;;;;;5.63;50.01;101811.75;4926386;29;20497;-51
2023/04/07 01:44:20;;;;;;;18.85;8.82;;;;;;;5.58;50.24;101824.03;4928367;29;20054;-51
2023/04/07 01:46:47;;;;;;;15.35;7.57;;;;;;;5.56;50.13;101810.13;4932197;29;20031;-51
2023/04/07 01:49:13;;;;;;;15.40;6.43;;;;;;;5.61;50.30;101809.16;4932312;29;20032;-51
2023/04/07 01:51:41;;;;;;;12.85;7.70;;;;;;;5.67;50.25;101802.09;4927859;29;20043;-51
2023/04/07 01:54:07;;;;;;;16.77;7.28;;;;;;;5.64;50.37;101808.25;4924067;29;20032;-52
2023/04/07 01:56:32;;;;;;;13.77;7.47;;;;;;;5.65;50.19;101804.75;4922304;29;20420;-51
2023/04/07 01:58:58;;;;;;;17.52;6.85;;;;;;;5.65;50.05;101802.97;4931615;29;20031;-51
2023/04/07 02:01:24;;;;;;;14.48;7.05;;;;;;;5.68;50.15;101809.03;4909873;29;20042;-52
2023/04/07 02:04:09;;;;;;;13.82;6.97;;;;;;;5.67;50.39;101810.81;4931934;29;20042;-51
2023/04/07 02:06:47;;;;;;;16.38;7.25;;;;;;;5.64;50.00;101810.84;4930907;29;20032;-51
2023/04/07 02:09:15;;;;;;;22.50;8.00;;;;;;;5.61;50.30;101803.94;4932899;29;20407;-52
2023/04/07 02:11:42;;;;;;;13.95;7.50;;;;;;;5.61;50.38;101808.31;4931947;29;20039;-51
2023/04/07 02:14:09;;;;;;;13.75;7.38;;;;;;;5.57;50.43;101810.13;4930331;29;20098;-51
2023/04/07 02:16:35;;;;;;;17.27;8.60;;;;;;;5.52;50.38;101798.91;4926205;29;20051;-51
2023/04/07 02:19:02;;;;;;;14.95;7.97;;;;;;;5.53;50.41;101800.63;4928977;29;20039;-53
2023/04/07 02:21:29;;;;;;;13.07;6.88;;;;;;;5.56;50.48;101800.56;4927198;29;20046;-52
2023/04/07 02:23:55;;;;;;;12.38;7.13;;;;;;;5.56;50.63;101800.56;4930475;29;20028;-51
2023/04/07 02:26:20;;;;;;;10.50;4.28;;;;;;;5.49;50.67;101801.56;4931076;29;20110;-51
2023/04/07 02:28:46;;;;;;;16.50;6.97;;;;;;;5.45;50.95;101792.94;4931290;29;20515;-51
2023/04/07 02:31:12;;;;;;;13.90;7.60;;;;;;;5.45;50.63;101792.94;4931116;29;20035;-51
2023/04/07 02:33:38;;;;;;;15.60;7.55;;;;;;;5.41;50.78;101790.41;4928290;29;20082;-51
2023/04/07 02:36:04;;;;;;;25.88;7.72;;;;;;;5.38;50.72;101796.53;4928848;29;20028;-51
2023/04/07 02:38:29;;;;;;;18.52;7.78;;;;;;;5.38;51.12;101793.09;4924210;29;20161;-51
2023/04/07 02:40:55;;;;;;;10.10;6.07;;;;;;;5.38;51.06;101791.31;4932345;29;20079;-52
2023/04/07 02:43:24;;;;;;;17.08;7.55;;;;;;;5.41;50.82;101791.25;4933237;29;20032;-51
2023/04/07 02:45:49;;;;;;;16.02;7.40;;;;;;;5.38;51.08;101780.88;4937503;29;20079;-51
2023/04/07 02:48:15;;;;;;;15.95;6.65;;;;;;;5.34;51.23;101784.47;4932325;29;20039;-52
2023/04/07 02:50:40;;;;;;;15.38;7.03;;;;;;;5.33;51.31;101793.19;4931196;29;20039;-52
2023/04/07 02:53:06;;;;;;;14.27;7.20;;;;;;;5.27;51.34;101788.94;4932812;29;20094;-51
2023/04/07 02:55:31;;;;;;;11.60;6.88;;;;;;;5.27;51.16;101785.44;4930770;29;20504;-51
2023/04/07 02:57:57;;;;;;;17.02;6.85;;;;;;;5.29;51.39;101781.06;4927180;29;20123;-51
2023/04/07 03:00:24;;;;;;;15.23;6.45;;;;;;;5.31;51.08;101779.28;4929789;29;20549;-52
2023/04/07 03:02:49;;;;;;;11.95;6.20;;;;;;;5.29;51.19;101770.63;4932639;29;20381;-51
2023/04/07 03:05:15;;;;;;;22.60;7.55;;;;;;;5.28;51.37;101769.78;4931505;29;20519;-51
2023/04/07 03:07:40;;;;;;;9.93;5.80;;;;;;;5.29;51.41;101770.63;4925190;29;20399;-51
2023/04/07 03:10:06;;;;;;;16.83;7.32;;;;;;;5.28;51.62;101780.22;4931015;29;20404;-53
2023/04/07 03:12:31;;;;;;;14.63;7.05;;;;;;;5.31;51.55;101779.28;4933720;29;20115;-51
2023/04/07 03:14:57;;;;;;;14.55;7.60;;;;;;;5.33;51.33;101764.47;4918335;29;20400;-52
2023/04/07 03:17:22;;;;;;;11.55;6.88;;;;;;;5.33;51.46;101767.91;4931961;29;20031;-51
2023/04/07 03:19:47;;;;;;;13.27;6.57;;;;;;;5.31;51.77;101764.47;4920646;29;20042;-51
2023/04/07 03:22:13;;;;;;;18.33;7.40;;;;;;;5.30;51.64;101769.75;4925673;29;20035;-51
2023/04/07 03:24:39;;;;;;;16.15;7.50;;;;;;;5.24;52.02;101773.34;4931023;29;20047;-52
2023/04/07 03:27:05;;;;;;;14.80;7.28;;;;;;;5.18;51.90;101769.09;4930542;29;20047;-51
2023/04/07 03:29:30;;;;;;;11.23;7.50;;;;;;;5.14;51.97;101772.63;4926879;29;20513;-53
2023/04/07 03:31:56;;;;;;;14.60;7.40;;;;;;;5.08;52.03;101770.13;4932326;29;20039;-51
2023/04/07 03:34:21;;;;;;;13.07;6.90;;;;;;;5.05;52.10;101762.38;4927758;29;20028;-52
2023/04/07 03:36:47;;;;;;;15.23;7.95;;;;;;;5.01;52.25;101768.53;4921280;29;20032;-51
2023/04/07 03:39:12;;;;;;;12.95;6.47;;;;;;;4.99;52.24;101767.69;4925528;29;20059;-51
2023/04/07 03:41:37;;;;;;;19.52;7.70;;;;;;;4.99;52.21;101768.53;4930201;29;20369;-53
2023/04/07 03:44:03;;;;;;;14.80;6.95;;;;;;;4.93;52.66;101770.41;4928127;29;20154;-51
2023/04/07 03:46:28;;;;;;;13.85;7.30;;;;;;;4.91;52.89;101772.19;4930613;29;20365;-51
2023/04/07 03:48:54;;;;;;;17.13;7.85;;;;;;;4.87;52.77;101779.19;4915234;29;20046;-51
2023/04/07 03:51:19;;;;;;;15.07;8.00;;;;;;;4.83;52.84;101775.78;4927436;29;20035;-52
2023/04/07 03:53:45;;;;;;;14.30;8.50;;;;;;;4.85;53.07;101774.03;4924278;29;20042;-51
2023/04/07 03:56:11;;;;;;;16.08;8.60;;;;;;;4.82;53.21;101770.59;4927461;29;20031;-52
2023/04/07 03:58:36;;;;;;;12.52;6.68;;;;;;;4.82;53.25;101771.47;4931660;29;20035;-51
2023/04/07 04:01:02;;;;;;;14.35;8.02;;;;;;;4.87;53.18;101767.03;4928476;29;20496;-51
2023/04/07 04:03:27;;;;;;;15.57;7.78;;;;;;;4.81;53.20;101767.13;4930089;29;20785;-51
2023/04/07 04:05:53;;;;;;;11.50;6.90;;;;;;;4.80;53.46;101773.22;4928726;29;20035;-51
2023/04/07 04:08:19;;;;;;;14.93;6.95;;;;;;;4.73;53.73;101761.19;4930598;29;20027;-52
2023/04/07 04:10:44;;;;;;;15.07;7.30;;;;;;;4.67;53.85;101756.06;4925237;29;20031;-52
2023/04/07 04:13:10;;;;;;;16.98;7.82;;;;;;;4.63;53.96;101757.00;4929532;29;20091;-52
2023/04/07 04:15:36;;;;;;;14.77;8.48;;;;;;;4.55;54.33;101763.22;4927040;29;20126;-52
2023/04/07 04:18:01;;;;;;;17.73;9.05;;;;;;;4.57;54.23;101757.97;4925948;29;20119;-52
2023/04/07 04:20:27;;;;;;;15.35;8.68;;;;;;;4.57;54.34;101761.44;4925697;29;20044;-51
2023/04/07 04:22:52;;;;;;;19.95;8.60;;;;;;;4.57;54.35;101755.34;4928401;29;20411;-51
2023/04/07 04:25:18;;;;;;;20.40;7.78;;;;;;;4.53;54.41;101764.97;4910551;29;20027;-51
2023/04/07 04:27:43;;;;;;;14.48;7.68;;;;;;;4.53;54.46;101759.78;4927660;29;20031;-52
2023/04/07 04:30:09;;;;;;;15.85;7.43;;;;;;;4.58;54.45;101768.38;4929200;29;20056;-51
2023/04/07 04:32:34;;;;;;;22.55;8.75;;;;;;;4.60;54.54;101770.09;4927404;29;21560;-52
2023/04/07 04:35:00;;;;;;;21.30;9.20;;;;;;;4.67;54.24;101766.50;4928043;29;20528;-51
2023/04/07 04:37:27;;;;;;;17.67;8.43;;;;;;;4.68;54.28;101771.72;4922026;29;20168;-51
2023/04/07 04:39:52;;;;;;;16.10;7.28;;;;;;;4.70;54.15;101772.50;4910382;29;20547;-51
2023/04/07 04:42:18;;;;;;;16.60;6.78;;;;;;;4.68;54.50;101776.03;4903793;29;20040;-52
2023/04/07 04:44:43;;;;;;;32.30;14.32;;;;;;;4.68;54.59;101781.25;4922092;29;20623;-51
2023/04/07 04:47:08;;;;;;;18.88;8.25;;;;;;;4.69;54.38;101780.38;4921171;29;20040;-51
2023/04/07 04:49:34;;;;;;;16.48;7.13;;;;;;;4.71;54.64;101774.25;4927126;29;20027;-52
2023/04/07 04:52:00;;;;;;;14.60;6.88;;;;;;;4.73;54.50;101775.06;4927007;29;20039;-51
2023/04/07 04:54:25;;;;;;;17.58;6.72;;;;;;;4.77;54.54;101783.69;4925029;29;20024;-51
2023/04/07 04:56:51;;;;;;;15.23;7.20;;;;;;;4.75;54.60;101785.50;4925111;29;20083;-53
2023/04/07 04:59:16;;;;;;;12.52;6.30;;;;;;;4.81;54.45;101785.38;4916982;29;20035;-53
2023/04/07 05:01:42;;;;;;;14.30;7.53;;;;;;;4.87;54.43;101787.03;4911294;29;20035;-51
2023/04/07 05:04:08;;;;;;;13.73;6.50;;;;;;;4.88;54.49;101786.13;4918087;29;20498;-53
2023/04/07 05:06:34;;;;;;;16.05;8.68;;;;;;;4.90;54.27;101794.78;4920779;29;20096;-52
2023/04/07 05:09:00;;;;;;;24.60;12.20;;;;;;;4.90;54.35;101788.72;4925381;29;20047;-53
2023/04/07 05:11:25;;;;;;;17.42;7.28;;;;;;;4.92;54.60;101792.16;4922198;29;20490;-51
2023/04/07 05:13:50;;;;;;;13.88;7.28;;;;;;;4.92;54.66;101787.81;4923325;29;20039;-51
2023/04/07 05:16:16;;;;;;;12.40;5.80;;;;;;;4.88;54.50;101787.00;4920686;29;20753;-51
2023/04/07 05:18:41;;;;;;;11.55;5.90;;;;;;;4.92;54.78;101781.72;4917974;29;20053;-51
2023/04/07 05:21:07;;;;;;;15.38;6.80;;;;;;;4.93;54.79;101786.06;4921116;29;20035;-54
2023/04/07 05:23:32;;;;;;;13.65;6.43;;;;;;;4.94;54.67;101787.78;4925160;29;20031;-51
2023/04/07 05:25:58;;;;;;;13.27;6.78;;;;;;;4.93;54.72;101783.44;4905930;29;20503;-59
2023/04/07 05:28:24;;;;;;;11.40;6.38;;;;;;;4.92;55.17;101786.94;4902879;29;20036;-51
2023/04/07 05:30:49;;;;;;;12.07;6.07;;;;;;;4.92;54.82;101792.16;4925800;29;20121;-55
2023/04/07 05:33:15;;;;;;;14.10;6.10;;;;;;;4.94;54.91;101783.44;4921655;29;20931;-51
2023/04/07 05:35:40;;;;;;;10.27;6.07;;;;;;;4.96;55.08;101784.28;4925621;29;20031;-52
2023/04/07 05:38:06;;;;;;;12.82;5.82;;;;;;;4.95;54.86;101781.66;4925744;29;20828;-53
2023/04/07 05:40:31;;;;;;;17.10;6.15;;;;;;;4.94;54.95;101779.94;4929632;29;20481;-57
2023/04/07 05:42:57;;;;;;;12.82;6.35;;;;;;;4.96;55.35;101778.19;4932305;29;20032;-51
2023/04/07 05:45:22;;;;;;;12.95;6.03;;;;;;;5.00;55.38;101774.63;4925650;29;20645;-55
2023/04/07 05:47:49;;;;;;;12.63;6.07;;;;;;;4.99;55.15;101778.13;4927664;29;20059;-57
2023/04/07 05:50:15;;;;;;;18.08;8.38;;;;;;;5.01;55.46;101779.81;4925921;29;20397;-51
2023/04/07 05:52:41;;;;;;;11.10;5.95;;;;;;;5.04;55.38;101776.31;4933657;29;20046;-51
2023/04/07 05:55:07;;;;;;;12.85;6.35;;;;;;;5.07;55.46;101781.44;4928577;29;20047;-53
2023/04/07 05:57:33;;;;;;;13.05;6.38;;;;;;;5.11;55.61;101771.84;4935754;29;20412;-51
2023/04/07 05:59:59;;;;;;;13.48;6.28;;;;;;;5.15;55.39;101774.34;4934744;29;20556;-54
2023/04/07 06:02:24;;;;;;;17.45;6.85;;;;;;;5.19;55.55;101773.41;4932045;29;20159;-54
2023/04/07 06:04:50;;;;;;;13.10;5.68;;;;;;;5.24;55.70;101775.06;4926248;29;20055;-52
2023/04/07 06:07:16;;;;;;;12.15;5.68;;;;;;;5.30;55.69;101782.78;4934546;29;20043;-52
2023/04/07 06:09:41;;;;;;;13.93;7.03;;;;;;;5.28;55.68;101779.34;4928822;29;20034;-54
2023/04/07 06:12:08;;;;;;;17.13;6.30;;;;;;;5.25;55.61;101779.41;4933466;29;20043;-50
2023/04/07 06:14:33;;;;;;;13.25;6.10;;;;;;;5.29;55.73;101781.06;4939570;29;20027;-54
2023/04/07 06:16:59;;;;;;;10.00;5.45;;;;;;;5.38;55.60;101778.25;4930344;29;20102;-51
2023/04/07 06:19:26;;;;;;;11.38;7.03;;;;;;;5.40;56.11;101781.72;4934189;29;20043;-50
2023/04/07 06:21:51;;;;;;;13.63;7.13;;;;;;;5.51;55.79;101780.66;4933458;29;20043;-56
2023/04/07 06:24:17;;;;;;;19.40;7.95;;;;;;;5.55;55.74;101784.91;4933306;29;20027;-51
2023/04/07 06:26:43;;;;;;;13.88;6.57;;;;;;;5.55;55.59;101783.19;4915436;29;20057;-57
2023/04/07 06:29:09;;;;;;;15.40;7.38;;;;;;;5.55;55.67;101782.31;4936562;29;20042;-51
2023/04/07 06:31:34;;;;;;;24.77;8.30;;;;;;;5.60;55.54;101780.47;4934919;29;20031;-54
2023/04/07 06:34:00;;;;;;;11.57;5.70;;;;;;;5.62;56.12;101786.53;4931361;29;20126;-55
2023/04/07 06:36:27;;;;;;;12.15;6.30;;;;;;;5.63;55.99;101786.47;4922648;29;20038;-51
2023/04/07 06:38:53;;;;;;;9.85;5.30;;;;;;;5.65;56.16;101783.84;4926116;29;20023;-54
2023/04/07 06:41:18;;;;;;;14.48;5.05;;;;;;;5.76;56.00;101781.00;4930385;29;20079;-52
2023/04/07 06:43:46;;;;;;;14.15;6.13;;;;;;;5.85;55.72;101790.41;4933641;29;20485;-51
2023/04/07 06:46:12;;;;;;;11.45;5.47;;;;;;;5.80;56.36;101786.16;4932530;29;20098;-52
2023/04/07 06:48:37;;;;;;;11.55;5.93;;;;;;;5.78;56.38;101785.31;4934673;29;20032;-51
2023/04/07 06:51:02;;;;;;;13.98;6.07;;;;;;;5.75;56.51;101785.38;4933810;29;20118;-56
2023/04/07 06:53:28;;;;;;;13.35;5.50;;;;;;;5.79;56.20;101792.25;4933156;29;20028;-53
2023/04/07 06:56:08;;;;;;;18.30;6.50;;;;;;;5.85;56.88;101791.28;4927501;29;20057;-51
2023/04/07 06:58:34;;;;;;;12.20;5.45;;;;;;;5.91;56.00;101785.06;4926689;29;20035;-52
2023/04/07 07:01:00;;;;;;;11.88;5.20;;;;;;;5.94;56.15;101780.63;4930354;29;20095;-51
2023/04/07 07:03:26;;;;;;;11.63;5.93;;;;;;;5.99;56.54;101788.34;4930843;29;20059;-54
2023/04/07 07:05:57;;;;;;;18.05;5.72;;;;;;;5.97;56.76;101795.38;4930444;29;20051;-51
2023/04/07 07:08:23;;;;;;;12.57;6.50;;;;;;;5.98;56.41;101791.84;4922885;29;20039;-57
2023/04/07 07:10:49;;;;;;;11.18;5.65;;;;;;;6.05;56.39;101787.41;4924424;29;20027;-54
2023/04/07 07:13:14;;;;;;;14.20;5.95;;;;;;;6.08;56.47;101788.19;4922410;29;20032;-51
2023/04/07 07:15:40;;;;;;;15.40;5.43;;;;;;;6.12;56.85;101794.22;4918849;29;20047;-51
2023/04/07 07:18:05;;;;;;;10.63;5.30;;;;;;;6.15;56.76;101793.25;4913813;29;20040;-52
2023/04/07 07:20:31;;;;;;;10.32;4.30;;;;;;;6.14;57.13;101796.78;4921378;29;20044;-53
2023/04/07 07:22:57;;;;;;;17.17;9.18;;;;;;;6.15;56.88;101795.88;4927330;29;20038;-54
2023/04/07 07:25:25;;;;;;;10.23;5.65;;;;;;;6.21;57.05;101803.59;4926037;29;20031;-52
2023/04/07 07:27:52;;;;;;;12.52;5.18;;;;;;;6.24;57.36;101806.16;4924874;29;20038;-56
2023/04/07 07:30:19;;;;;;;8.43;4.40;;;;;;;6.21;57.73;101803.59;4927417;29;20032;-51
2023/04/07 07:32:44;;;;;;;8.95;5.03;;;;;;;6.20;57.71;101801.88;4918334;29;20634;-51
2023/04/07 07:35:10;;;;;;;9.77;4.78;;;;;;;6.21;57.60;101804.44;4929452;29;20043;-55
2023/04/07 07:37:35;;;;;;;10.43;5.10;;;;;;;6.17;58.23;101807.16;4921660;29;20068;-52
2023/04/07 07:40:01;;;;;;;9.48;4.90;;;;;;;6.22;58.08;101807.94;4926556;29;20028;-59
2023/04/07 07:42:26;;;;;;;9.25;4.15;;;;;;;6.25;58.21;101800.88;4922808;29;20035;-53
2023/04/07 07:44:51;;;;;;;11.27;4.55;;;;;;;6.28;58.39;101799.94;4927579;29;20038;-54
2023/04/07 07:47:17;;;;;;;12.70;5.28;;;;;;;6.30;58.14;101808.59;4931366;29;20122;-52
2023/04/07 07:49:43;;;;;;;7.25;4.40;;;;;;;6.28;59.08;101807.78;4923868;29;20043;-51
2023/04/07 07:52:10;;;;;;;8.45;5.07;;;;;;;6.28;59.14;101806.94;4927745;29;20039;-54
2023/04/07 07:54:35;;;;;;;10.73;4.43;;;;;;;6.34;58.55;101810.25;4927050;29;20040;-54
2023/04/07 07:57:01;;;;;;;8.02;4.53;;;;;;;6.39;58.84;101812.75;4928341;29;20039;-53
2023/04/07 07:59:27;;;;;;;13.23;5.20;;;;;;;6.35;59.29;101814.59;4925457;29;20138;-52
2023/04/07 08:01:53;;;;;;;8.07;4.82;;;;;;;6.38;58.77;101814.53;4927003;29;20595;-52
2023/04/07 08:04:19;;;;;;;10.30;5.07;;;;;;;6.42;58.93;101817.09;4927348;29;20042;-51
2023/04/07 08:06:45;;;;;;;12.23;5.07;;;;;;;6.45;58.84;101824.84;4929083;29;20090;-52
2023/04/07 08:09:10;;;;;;;10.93;5.05;;;;;;;6.49;58.94;101816.03;4922199;29;20036;-57
2023/04/07 08:11:36;;;;;;;8.18;3.88;;;;;;;6.51;59.26;101824.72;4926104;29;20102;-54
2023/04/07 08:14:01;;;;;;;14.73;6.47;;;;;;;6.53;59.21;101822.91;4927048;29;20056;-52
2023/04/07 08:16:27;;;;;;;11.32;6.50;;;;;;;6.53;59.15;101821.16;4926010;29;20036;-52
2023/04/07 08:18:52;;;;;;;11.65;4.97;;;;;;;6.55;59.25;101824.59;4923075;29;20047;-56
2023/04/07 08:21:18;;;;;;;6.07;3.67;;;;;;;6.61;59.20;101826.19;4926103;29;20042;-52
2023/04/07 08:23:44;;;;;;;8.70;4.47;;;;;;;6.63;59.96;101828.78;4926083;29;20055;-59
2023/04/07 08:26:10;;;;;;;12.15;5.82;;;;;;;6.61;59.88;101827.97;4927093;29;20070;-53
2023/04/07 08:28:35;;;;;;;9.10;4.97;;;;;;;6.63;59.56;101827.03;4925141;29;20031;-55
2023/04/07 08:31:01;;;;;;;11.02;5.00;;;;;;;6.61;60.08;101830.59;4927542;29;20066;-52
2023/04/07 08:33:26;;;;;;;7.78;4.63;;;;;;;6.59;60.09;101830.59;4925515;29;20396;-52
2023/04/07 08:35:52;;;;;;;7.95;4.88;;;;;;;6.67;59.87;101833.03;4924049;29;20050;-55
2023/04/07 08:38:17;;;;;;;11.02;5.05;;;;;;;6.63;60.26;101827.03;4929724;29;20182;-53
2023/04/07 08:40:42;;;;;;;11.10;6.15;;;;;;;6.68;60.20;101833.00;4925725;29;20118;-52
2023/04/07 08:43:09;;;;;;;11.13;5.43;;;;;;;6.70;59.98;101832.97;4930046;29;20032;-51
2023/04/07 08:45:39;;;;;;;12.02;5.90;;;;;;;6.70;60.28;101833.84;4927134;29;20476;-52
2023/04/07 08:48:15;;;;;;;14.02;6.68;;;;;;;6.74;60.08;101834.63;4926843;29;20028;-55
2023/04/07 08:50:44;;;;;;;11.32;6.65;;;;;;;6.76;60.60;101831.97;4930683;29;20031;-53
2023/04/07 08:53:13;;;;;;;16.90;7.90;;;;;;;6.77;60.03;101833.69;4924912;29;20059;-52
2023/04/07 08:55:40;;;;;;;15.00;7.90;;;;;;;6.82;60.16;101827.44;4907767;29;20027;-53
2023/04/07 08:58:11;;;;;;;18.58;9.15;;;;;;;6.89;60.52;101833.38;4922597;29;20035;-58
2023/04/07 09:00:44;;;;;;;12.93;7.68;;;;;;;6.92;61.12;101827.22;4926572;29;20059;-55
2023/04/07 09:03:10;;;;;;;;;;;;;;;6.86;62.97;101833.47;4925755;29;20118;-53
2023/04/07 09:05:36;;;;;;;16.02;8.02;;;;;;;6.83;60.83;101833.53;4917098;29;19934;-52
2023/04/07 09:08:02;;;;;;;18.90;7.85;;;;;;;6.83;60.88;101839.63;4915613;29;20044;-51
2023/04/07 09:10:27;;;;;;;16.23;9.00;;;;;;;6.91;60.44;101835.97;4928634;29;20589;-54
2023/04/07 09:12:53;;;;;;;20.50;8.93;;;;;;;6.99;60.44;101834.00;4921643;29;20038;-54
2023/04/07 09:15:20;;;;;;;16.10;8.75;;;;;;;7.05;60.62;101835.59;4927091;29;20039;-54
2023/04/07 09:17:46;;;;;;;19.08;8.65;;;;;;;7.05;60.83;101830.38;4928604;29;20031;-51
2023/04/07 09:20:11;;;;;;;15.40;7.88;;;;;;;7.07;60.96;101828.56;4926265;29;20485;-56
2023/04/07 09:22:42;;;;;;;14.48;8.52;;;;;;;7.03;61.55;101840.03;4924758;29;20489;-55
2023/04/07 09:25:22;;;;;;;16.88;7.07;;;;;;;7.07;61.22;101837.31;4931970;29;20035;-52
2023/04/07 09:27:54;;;;;;;13.68;8.05;;;;;;;7.11;61.92;101835.47;4930682;29;20031;-55
2023/04/07 09:30:20;;;;;;;17.48;8.60;;;;;;;7.06;61.56;101835.59;4927663;29;20035;-52
2023/04/07 09:32:45;;;;;;;12.80;6.95;;;;;;;7.06;61.35;101829.47;4928333;29;20046;-53
2023/04/07 09:35:10;;;;;;;15.05;6.15;;;;;;;7.08;61.64;101832.91;4930907;29;20073;-51
2023/04/07 09:37:36;;;;;;;12.70;6.40;;;;;;;7.10;61.91;101832.00;4925669;29;20036;-52
2023/04/07 09:40:01;;;;;;;14.65;6.43;;;;;;;7.11;61.88;101833.69;4930824;29;20054;-55
2023/04/07 09:42:31;;;;;;;15.43;7.75;;;;;;;7.08;61.66;101844.25;4931983;29;20032;-55
2023/04/07 09:44:58;;;;;;;15.18;7.32;;;;;;;7.05;62.09;101833.00;4931082;29;20035;-53
2023/04/07 09:47:28;;;;;;;18.05;8.40;;;;;;;7.06;61.91;101837.31;4932886;29;20042;-56
2023/04/07 09:49:54;;;;;;;20.33;7.43;;;;;;;7.09;61.94;101842.50;4931889;29;20020;-52
2023/04/07 09:52:52;;;;;;;16.90;7.88;;;;;;;7.09;63.43;101834.63;4933385;29;20496;-52
2023/04/07 09:55:21;;;;;;;19.70;9.35;;;;;;;7.09;62.51;101840.75;4925800;29;20058;-53
2023/04/07 09:57:51;;;;;;;19.35;9.60;;;;;;;7.05;62.97;101835.59;4928145;29;20064;-52
2023/04/07 10:00:17;;;;;;;20.30;9.98;;;;;;;7.01;62.03;101843.56;4920093;29;20039;-51
2023/04/07 10:02:43;;;;;;;21.38;9.77;;;;;;;7.01;62.19;101838.31;4923154;29;20040;-52
2023/04/07 10:05:09;;;;;;;24.77;10.90;;;;;;;6.99;62.83;101840.13;4909994;29;20039;-52
2023/04/07 10:07:35;;;;;;;23.70;10.95;;;;;;;7.03;62.45;101843.50;4926531;29;20027;-54
2023/04/07 10:10:06;;;;;;;24.95;10.73;;;;;;;7.06;62.77;101846.06;4930165;29;20031;-54
2023/04/07 10:12:33;;;;;;;25.00;9.45;;;;;;;7.09;62.87;101845.09;4927422;29;20508;-51
2023/04/07 10:15:00;;;;;;;29.73;11.88;;;;;;;7.07;63.12;101839.03;4929393;29;20042;-52
2023/04/07 10:17:27;;;;;;;26.48;11.27;;;;;;;7.07;63.01;101846.91;4931541;29;20024;-51
2023/04/07 10:19:55;;;;;;;23.08;10.13;;;;;;;7.08;63.45;101838.16;4925087;29;20659;-57
2023/04/07 10:22:21;;;;;;;22.05;10.35;;;;;;;7.07;63.36;101836.44;4925460;29;20031;-53
2023/04/07 10:25:05;;;;;;;24.52;10.07;;;;;;;7.05;64.32;101839.09;4925285;29;20078;-53
2023/04/07 10:27:36;;;;;;;31.75;10.43;;;;;;;7.11;63.62;101832.84;4931766;29;20031;-52
2023/04/07 10:30:06;;;;;;;19.13;9.05;;;;;;;7.12;63.80;101834.56;4932114;29;20040;-54
2023/04/07 10:32:45;;;;;;;26.85;11.55;;;;;;;7.19;64.03;101840.50;4924686;29;20035;-54
2023/04/07 10:35:11;;;;;;;28.17;11.98;;;;;;;7.25;63.55;101833.34;4930846;29;20536;-51
2023/04/07 10:37:36;;;;;;;19.45;9.93;;;;;;;7.28;63.46;101833.28;4923379;29;20032;-56
2023/04/07 10:40:25;;;;;;;22.05;8.77;;;;;;;7.25;65.00;101833.34;4912756;29;20040;-52
2023/04/07 10:42:51;;;;;;;18.80;8.90;;;;;;;7.22;64.10;101835.19;4931140;29;20107;-55
2023/04/07 10:45:47;;;;;;;22.33;9.70;;;;;;;7.26;64.34;101832.44;4931311;29;20082;-50
2023/04/07 10:48:14;;;;;;;19.35;8.68;;;;;;;7.30;64.09;101828.84;4930336;29;20036;-52
2023/04/07 10:50:39;;;;;;;14.60;7.97;;;;;;;7.33;63.94;101833.13;4928664;29;20514;-51
2023/04/07 10:53:12;;;;;;;19.95;8.88;;;;;;;7.30;64.57;101823.63;4928023;29;20031;-50
2023/04/07 10:55:37;;;;;;;18.20;8.35;;;;;;;7.35;63.99;101817.38;4925537;29;20049;-50
2023/04/07 10:58:17;;;;;;;15.55;8.05;;;;;;;7.35;64.87;101825.22;4930038;29;20098;-49
2023/04/07 11:01:06;;;;;;;18.58;9.18;;;;;;;7.41;64.73;101825.09;4925467;29;20031;-50
2023/04/07 11:03:34;;;;;;;19.48;8.65;;;;;;;7.47;64.32;101824.94;4918018;29;20043;-54
2023/04/07 11:06:10;;;;;;;15.00;7.22;;;;;;;7.51;64.32;101820.44;4928384;29;20511;-51
2023/04/07 11:08:41;;;;;;;19.42;8.52;;;;;;;7.53;64.31;101813.41;4927497;29;20126;-51
2023/04/07 11:11:08;;;;;;;21.40;9.77;;;;;;;7.58;64.12;101806.28;4930183;29;20048;-52
2023/04/07 11:13:40;;;;;;;26.85;11.80;;;;;;;7.59;64.40;101808.88;4924966;29;20098;-52
2023/04/07 11:16:06;;;;;;;18.25;9.35;;;;;;;7.61;64.16;101801.81;4926685;29;20437;-52
2023/04/07 11:18:32;;;;;;;18.48;7.93;;;;;;;7.61;64.20;101807.06;4922304;29;20043;-52
2023/04/07 11:20:57;;;;;;;8.70;4.78;;;;;;;7.67;64.75;101807.78;4920794;29;20101;-51
2023/04/07 11:23:24;;;;;;;17.25;7.90;;;;;;;7.63;64.48;101807.00;4913934;29;20488;-52
2023/04/07 11:26:02;;;;;;;18.58;7.85;;;;;;;7.72;64.45;101808.50;4926253;29;20382;-54
2023/04/07 11:28:29;;;;;;;13.65;6.07;;;;;;;7.73;64.42;101807.63;4928764;29;20051;-52